sensor_id;sensor_type;location;lat;lon;timestamp;P1;durP1;ratioP1;P2;durP2;ratioP2
39822;SDS011;25499;53.958;10.970;2024-02-26T05:48:36;5.93;;;4.22;;
39822;SDS011;25499;53.958;10.970;2024-02-26T05:51:04;6.90;;;5.13;;
39822;SDS011;25499;53.958;10.970;2024-02-26T05:53:31;10.50;;;6.32;;
39822;SDS011;25499;53.958;10.970;2024-02-26T05:55:57;6.72;;;4.88;;
39822;SDS011;25499;53.958;10.970;2024-02-26T05:58:24;11.98;;;8.50;;
39822;SDS011;25499;53.958;10.970;2024-02-26T06:00:51;11.48;;;7.32;;
39822;SDS011;25499;53.958;10.970;2024-02-26T06:03:18;10.90;;;7.85;;
39822;SDS011;25499;53.958;10.970;2024-02-26T06:05:46;10.23;;;5.90;;
39822;SDS011;25499;53.958;10.970;2024-02-26T06:08:12;12.45;;;6.55;;
39822;SDS011;25499;53.958;10.970;2024-02-26T06:10:40;9.48;;;6.07;;
39822;SDS011;25499;53.958;10.970;2024-02-26T06:13:06;6.75;;;5.53;;
39822;SDS011;25499;53.958;10.970;2024-02-26T06:15:33;9.63;;;5.97;;
39822;SDS011;25499;53.958;10.970;2024-02-26T06:18:00;8.20;;;6.00;;
39822;SDS011;25499;53.958;10.970;2024-02-26T06:20:27;9.70;;;6.88;;
39822;SDS011;25499;53.958;10.970;2024-02-26T06:22:55;9.02;;;6.05;;
39822;SDS011;25499;53.958;10.970;2024-02-26T06:25:22;8.35;;;5.72;;
39822;SDS011;25499;53.958;10.970;2024-02-26T06:27:49;7.43;;;5.13;;
39822;SDS011;25499;53.958;10.970;2024-02-26T06:30:15;6.30;;;5.03;;
39822;SDS011;25499;53.958;10.970;2024-02-26T06:32:42;8.02;;;6.45;;
39822;SDS011;25499;53.958;10.970;2024-02-26T06:35:09;10.15;;;7.20;;
39822;SDS011;25499;53.958;10.970;2024-02-26T06:37:36;11.25;;;8.02;;
39822;SDS011;25499;53.958;10.970;2024-02-26T06:40:05;12.95;;;8.63;;
39822;SDS011;25499;53.958;10.970;2024-02-26T06:42:33;11.70;;;7.57;;
39822;SDS011;25499;53.958;10.970;2024-02-26T06:45:00;13.23;;;9.52;;
39822;SDS011;25499;53.958;10.970;2024-02-26T06:47:27;10.70;;;6.72;;
39822;SDS011;25499;53.958;10.970;2024-02-26T06:49:53;14.98;;;6.13;;
39822;SDS011;25499;53.958;10.970;2024-02-26T06:52:23;24.70;;;7.00;;
39822;SDS011;25499;53.958;10.970;2024-02-26T06:54:50;20.88;;;8.02;;
39822;SDS011;25499;53.958;10.970;2024-02-26T06:57:19;47.78;;;9.98;;
39822;SDS011;25499;53.958;10.970;2024-02-26T06:59:46;16.83;;;5.07;;
39822;SDS011;25499;53.958;10.970;2024-02-26T07:02:14;33.20;;;6.43;;
39822;SDS011;25499;53.958;10.970;2024-02-26T07:04:41;61.92;;;9.00;;
39822;SDS011;25499;53.958;10.970;2024-02-26T07:07:08;36.25;;;10.52;;
39822;SDS011;25499;53.958;10.970;2024-02-26T07:09:35;60.50;;;12.95;;
39822;SDS011;25499;53.958;10.970;2024-02-26T07:12:02;58.80;;;12.13;;
39822;SDS011;25499;53.958;10.970;2024-02-26T07:14:31;86.80;;;13.15;;
39822;SDS011;25499;53.958;10.970;2024-02-26T07:16:58;65.07;;;10.43;;
39822;SDS011;25499;53.958;10.970;2024-02-26T07:19:25;71.50;;;10.35;;
39822;SDS011;25499;53.958;10.970;2024-02-26T07:21:52;76.93;;;10.98;;
39822;SDS011;25499;53.958;10.970;2024-02-26T07:24:19;107.93;;;12.57;;
39822;SDS011;25499;53.958;10.970;2024-02-26T07:26:45;76.82;;;12.18;;
39822;SDS011;25499;53.958;10.970;2024-02-26T07:29:12;70.55;;;13.48;;
39822;SDS011;25499;53.958;10.970;2024-02-26T07:31:40;74.68;;;12.05;;
39822;SDS011;25499;53.958;10.970;2024-02-26T07:34:07;86.43;;;12.20;;
39822;SDS011;25499;53.958;10.970;2024-02-26T07:36:34;76.32;;;13.10;;
39822;SDS011;25499;53.958;10.970;2024-02-26T07:39:01;148.02;;;27.73;;
39822;SDS011;25499;53.958;10.970;2024-02-26T07:41:28;101.15;;;20.25;;
39822;SDS011;25499;53.958;10.970;2024-02-26T07:43:54;82.57;;;17.02;;
39822;SDS011;25499;53.958;10.970;2024-02-26T07:46:21;139.13;;;15.63;;
39822;SDS011;25499;53.958;10.970;2024-02-26T07:48:49;92.25;;;13.32;;
39822;SDS011;25499;53.958;10.970;2024-02-26T07:51:16;75.78;;;12.00;;
39822;SDS011;25499;53.958;10.970;2024-02-26T07:53:44;61.63;;;12.05;;
39822;SDS011;25499;53.958;10.970;2024-02-26T07:56:11;112.32;;;12.75;;
39822;SDS011;25499;53.958;10.970;2024-02-26T07:58:38;65.07;;;12.23;;
39822;SDS011;25499;53.958;10.970;2024-02-26T08:01:04;91.97;;;16.52;;
39822;SDS011;25499;53.958;10.970;2024-02-26T08:03:31;107.30;;;17.23;;
39822;SDS011;25499;53.958;10.970;2024-02-26T08:05:59;83.70;;;14.95;;
39822;SDS011;25499;53.958;10.970;2024-02-26T08:08:26;92.40;;;15.13;;
39822;SDS011;25499;53.958;10.970;2024-02-26T08:10:53;83.45;;;13.73;;
39822;SDS011;25499;53.958;10.970;2024-02-26T08:13:19;89.10;;;12.70;;
39822;SDS011;25499;53.958;10.970;2024-02-26T08:15:46;104.97;;;11.45;;
39822;SDS011;25499;53.958;10.970;2024-02-26T08:18:13;92.30;;;12.98;;
39822;SDS011;25499;53.958;10.970;2024-02-26T08:20:41;78.45;;;12.05;;
39822;SDS011;25499;53.958;10.970;2024-02-26T08:23:09;38.05;;;11.25;;
39822;SDS011;25499;53.958;10.970;2024-02-26T08:25:36;28.45;;;12.10;;
39822;SDS011;25499;53.958;10.970;2024-02-26T08:28:03;25.48;;;12.65;;
39822;SDS011;25499;53.958;10.970;2024-02-26T08:30:30;27.02;;;11.00;;
39822;SDS011;25499;53.958;10.970;2024-02-26T08:32:57;26.02;;;11.75;;
39822;SDS011;25499;53.958;10.970;2024-02-26T08:35:24;20.42;;;11.63;;
39822;SDS011;25499;53.958;10.970;2024-02-26T08:37:50;21.77;;;12.98;;
39822;SDS011;25499;53.958;10.970;2024-02-26T08:40:19;20.23;;;12.85;;
39822;SDS011;25499;53.958;10.970;2024-02-26T08:42:45;26.10;;;12.85;;
39822;SDS011;25499;53.958;10.970;2024-02-26T08:45:12;19.52;;;12.40;;
39822;SDS011;25499;53.958;10.970;2024-02-26T08:47:39;20.58;;;13.07;;
39822;SDS011;25499;53.958;10.970;2024-02-26T08:50:06;25.70;;;13.98;;
39822;SDS011;25499;53.958;10.970;2024-02-26T08:52:34;30.65;;;15.23;;
39822;SDS011;25499;53.958;10.970;2024-02-26T08:55:02;29.45;;;15.43;;
39822;SDS011;25499;53.958;10.970;2024-02-26T08:57:31;36.00;;;17.45;;
39822;SDS011;25499;53.958;10.970;2024-02-26T08:59:59;33.67;;;16.27;;
39822;SDS011;25499;53.958;10.970;2024-02-26T09:02:25;35.47;;;15.90;;
39822;SDS011;25499;53.958;10.970;2024-02-26T09:04:52;29.80;;;14.02;;
39822;SDS011;25499;53.958;10.970;2024-02-26T09:07:20;42.95;;;13.43;;
39822;SDS011;25499;53.958;10.970;2024-02-26T09:09:47;34.03;;;14.23;;
39822;SDS011;25499;53.958;10.970;2024-02-26T09:12:14;30.60;;;13.73;;
39822;SDS011;25499;53.958;10.970;2024-02-26T09:14:42;26.00;;;14.20;;
39822;SDS011;25499;53.958;10.970;2024-02-26T09:17:09;29.58;;;14.32;;
39822;SDS011;25499;53.958;10.970;2024-02-26T09:19:36;26.85;;;13.23;;
39822;SDS011;25499;53.958;10.970;2024-02-26T09:22:03;26.65;;;13.13;;
39822;SDS011;25499;53.958;10.970;2024-02-26T09:24:29;28.13;;;13.50;;
39822;SDS011;25499;53.958;10.970;2024-02-26T09:26:56;25.17;;;13.13;;
39822;SDS011;25499;53.958;10.970;2024-02-26T09:29:23;27.35;;;13.30;;
39822;SDS011;25499;53.958;10.970;2024-02-26T09:31:53;35.25;;;15.30;;
39822;SDS011;25499;53.958;10.970;2024-02-26T09:34:20;37.85;;;13.27;;
39822;SDS011;25499;53.958;10.970;2024-02-26T09:36:46;34.28;;;13.70;;
39822;SDS011;25499;53.958;10.970;2024-02-26T09:39:13;31.83;;;16.58;;
39822;SDS011;25499;53.958;10.970;2024-02-26T09:41:45;30.83;;;15.07;;
39822;SDS011;25499;53.958;10.970;2024-02-26T09:44:12;31.05;;;13.20;;
39822;SDS011;25499;53.958;10.970;2024-02-26T09:46:41;29.05;;;12.98;;
39822;SDS011;25499;53.958;10.970;2024-02-26T09:49:10;25.45;;;12.15;;
39822;SDS011;25499;53.958;10.970;2024-02-26T09:51:38;23.80;;;12.67;;
39822;SDS011;25499;53.958;10.970;2024-02-26T09:54:06;24.17;;;12.52;;
39822;SDS011;25499;53.958;10.970;2024-02-26T09:56:35;31.70;;;13.73;;
39822;SDS011;25499;53.958;10.970;2024-02-26T09:59:03;25.48;;;13.93;;
39822;SDS011;25499;53.958;10.970;2024-02-26T10:01:32;27.95;;;14.48;;
39822;SDS011;25499;53.958;10.970;2024-02-26T10:04:00;26.30;;;14.85;;
39822;SDS011;25499;53.958;10.970;2024-02-26T10:06:29;28.23;;;15.32;;
39822;SDS011;25499;53.958;10.970;2024-02-26T10:08:56;28.38;;;15.73;;
39822;SDS011;25499;53.958;10.970;2024-02-26T10:11:24;30.92;;;15.70;;
39822;SDS011;25499;53.958;10.970;2024-02-26T10:13:51;30.20;;;15.80;;
39822;SDS011;25499;53.958;10.970;2024-02-26T10:16:18;30.35;;;16.13;;
39822;SDS011;25499;53.958;10.970;2024-02-26T10:18:45;29.30;;;15.15;;
39822;SDS011;25499;53.958;10.970;2024-02-26T10:21:13;29.95;;;15.30;;
39822;SDS011;25499;53.958;10.970;2024-02-26T10:23:43;30.13;;;15.85;;
39822;SDS011;25499;53.958;10.970;2024-02-26T10:26:10;29.90;;;16.60;;
39822;SDS011;25499;53.958;10.970;2024-02-26T10:28:38;30.15;;;16.45;;
39822;SDS011;25499;53.958;10.970;2024-02-26T10:31:06;31.83;;;16.40;;
39822;SDS011;25499;53.958;10.970;2024-02-26T10:33:33;30.38;;;17.30;;
39822;SDS011;25499;53.958;10.970;2024-02-26T10:36:01;31.27;;;16.33;;
39822;SDS011;25499;53.958;10.970;2024-02-26T10:38:28;31.67;;;16.70;;
39822;SDS011;25499;53.958;10.970;2024-02-26T10:40:57;29.42;;;15.80;;
39822;SDS011;25499;53.958;10.970;2024-02-26T10:43:25;29.17;;;15.88;;
39822;SDS011;25499;53.958;10.970;2024-02-26T10:45:52;29.35;;;15.30;;
39822;SDS011;25499;53.958;10.970;2024-02-26T10:48:21;29.15;;;15.43;;
39822;SDS011;25499;53.958;10.970;2024-02-26T10:50:47;30.33;;;15.15;;
39822;SDS011;25499;53.958;10.970;2024-02-26T10:53:16;31.50;;;14.77;;
39822;SDS011;25499;53.958;10.970;2024-02-26T10:55:48;29.00;;;14.48;;
39822;SDS011;25499;53.958;10.970;2024-02-26T10:58:17;30.67;;;15.18;;
39822;SDS011;25499;53.958;10.970;2024-02-26T11:00:45;30.20;;;15.25;;
39822;SDS011;25499;53.958;10.970;2024-02-26T11:03:13;31.77;;;15.35;;
39822;SDS011;25499;53.958;10.970;2024-02-26T11:05:42;36.85;;;15.48;;
39822;SDS011;25499;53.958;10.970;2024-02-26T11:08:10;34.38;;;14.40;;
39822;SDS011;25499;53.958;10.970;2024-02-26T11:10:38;36.63;;;15.18;;
39822;SDS011;25499;53.958;10.970;2024-02-26T11:13:06;33.75;;;15.25;;
39822;SDS011;25499;53.958;10.970;2024-02-26T11:15:39;32.92;;;15.45;;
39822;SDS011;25499;53.958;10.970;2024-02-26T11:18:07;37.33;;;15.73;;
39822;SDS011;25499;53.958;10.970;2024-02-26T11:20:35;36.83;;;16.23;;
39822;SDS011;25499;53.958;10.970;2024-02-26T11:23:05;39.38;;;16.60;;
39822;SDS011;25499;53.958;10.970;2024-02-26T11:25:34;39.70;;;16.88;;
39822;SDS011;25499;53.958;10.970;2024-02-26T11:28:03;40.45;;;17.13;;
39822;SDS011;25499;53.958;10.970;2024-02-26T11:30:33;37.97;;;16.45;;
39822;SDS011;25499;53.958;10.970;2024-02-26T11:33:05;42.10;;;17.67;;
39822;SDS011;25499;53.958;10.970;2024-02-26T11:35:34;38.97;;;17.10;;
39822;SDS011;25499;53.958;10.970;2024-02-26T11:38:03;44.90;;;18.30;;
39822;SDS011;25499;53.958;10.970;2024-02-26T11:40:32;45.45;;;19.38;;
39822;SDS011;25499;53.958;10.970;2024-02-26T11:42:59;42.00;;;19.50;;
39822;SDS011;25499;53.958;10.970;2024-02-26T11:48:25;47.28;;;19.00;;
39822;SDS011;25499;53.958;10.970;2024-02-26T11:50:55;46.72;;;19.33;;
39822;SDS011;25499;53.958;10.970;2024-02-26T11:53:24;53.58;;;20.88;;
39822;SDS011;25499;53.958;10.970;2024-02-26T11:59:03;60.53;;;22.13;;
39822;SDS011;25499;53.958;10.970;2024-02-26T12:01:44;74.35;;;23.70;;
39822;SDS011;25499;53.958;10.970;2024-02-26T12:04:15;61.40;;;21.92;;
39822;SDS011;25499;53.958;10.970;2024-02-26T12:06:45;60.88;;;21.15;;
39822;SDS011;25499;53.958;10.970;2024-02-26T12:09:30;60.47;;;22.40;;
39822;SDS011;25499;53.958;10.970;2024-02-26T12:11:59;59.97;;;21.92;;
39822;SDS011;25499;53.958;10.970;2024-02-26T12:14:27;51.13;;;20.52;;
39822;SDS011;25499;53.958;10.970;2024-02-26T12:16:54;49.75;;;18.80;;
39822;SDS011;25499;53.958;10.970;2024-02-26T12:19:24;50.42;;;19.05;;
39822;SDS011;25499;53.958;10.970;2024-02-26T12:21:51;46.92;;;18.60;;
39822;SDS011;25499;53.958;10.970;2024-02-26T12:24:20;50.50;;;18.30;;
39822;SDS011;25499;53.958;10.970;2024-02-26T12:26:47;45.03;;;17.88;;
39822;SDS011;25499;53.958;10.970;2024-02-26T12:29:14;42.75;;;17.77;;
39822;SDS011;25499;53.958;10.970;2024-02-26T12:31:41;45.55;;;17.77;;
39822;SDS011;25499;53.958;10.970;2024-02-26T12:34:08;45.35;;;17.80;;
39822;SDS011;25499;53.958;10.970;2024-02-26T12:36:37;40.50;;;17.17;;
39822;SDS011;25499;53.958;10.970;2024-02-26T12:39:05;40.28;;;17.00;;
39822;SDS011;25499;53.958;10.970;2024-02-26T12:41:34;42.58;;;17.13;;
39822;SDS011;25499;53.958;10.970;2024-02-26T12:44:01;38.58;;;16.42;;
39822;SDS011;25499;53.958;10.970;2024-02-26T12:46:28;45.33;;;18.10;;
39822;SDS011;25499;53.958;10.970;2024-02-26T12:48:56;46.90;;;18.30;;
39822;SDS011;25499;53.958;10.970;2024-02-26T12:51:24;45.40;;;19.35;;
39822;SDS011;25499;53.958;10.970;2024-02-26T12:53:53;41.13;;;18.88;;
39822;SDS011;25499;53.958;10.970;2024-02-26T12:56:21;42.53;;;19.30;;
39822;SDS011;25499;53.958;10.970;2024-02-26T12:58:48;42.15;;;18.42;;
39822;SDS011;25499;53.958;10.970;2024-02-26T13:01:18;40.72;;;18.98;;
39822;SDS011;25499;53.958;10.970;2024-02-26T13:03:47;41.83;;;19.00;;
39822;SDS011;25499;53.958;10.970;2024-02-26T13:06:15;36.15;;;16.55;;
39822;SDS011;25499;53.958;10.970;2024-02-26T13:08:43;38.47;;;16.42;;
39822;SDS011;25499;53.958;10.970;2024-02-26T13:11:11;37.97;;;16.95;;
39822;SDS011;25499;53.958;10.970;2024-02-26T13:13:38;31.92;;;14.80;;
39822;SDS011;25499;53.958;10.970;2024-02-26T13:16:05;35.47;;;16.08;;
39822;SDS011;25499;53.958;10.970;2024-02-26T13:18:41;40.42;;;16.98;;
39822;SDS011;25499;53.958;10.970;2024-02-26T13:21:09;33.63;;;14.95;;
39822;SDS011;25499;53.958;10.970;2024-02-26T13:23:37;34.00;;;16.50;;
39822;SDS011;25499;53.958;10.970;2024-02-26T13:26:04;31.60;;;15.43;;
39822;SDS011;25499;53.958;10.970;2024-02-26T13:28:32;30.52;;;15.05;;
39822;SDS011;25499;53.958;10.970;2024-02-26T13:30:59;31.73;;;15.38;;
39822;SDS011;25499;53.958;10.970;2024-02-26T13:33:28;33.67;;;16.00;;
39822;SDS011;25499;53.958;10.970;2024-02-26T13:35:56;28.40;;;13.90;;
39822;SDS011;25499;53.958;10.970;2024-02-26T13:38:23;29.27;;;14.10;;
39822;SDS011;25499;53.958;10.970;2024-02-26T13:40:51;29.27;;;15.23;;
39822;SDS011;25499;53.958;10.970;2024-02-26T13:43:18;26.15;;;13.35;;
39822;SDS011;25499;53.958;10.970;2024-02-26T13:45:46;24.85;;;13.82;;
39822;SDS011;25499;53.958;10.970;2024-02-26T13:48:13;24.75;;;12.95;;
39822;SDS011;25499;53.958;10.970;2024-02-26T13:50:41;25.25;;;12.98;;
39822;SDS011;25499;53.958;10.970;2024-02-26T13:53:10;25.40;;;13.80;;
39822;SDS011;25499;53.958;10.970;2024-02-26T13:55:37;25.05;;;14.10;;
39822;SDS011;25499;53.958;10.970;2024-02-26T13:58:07;26.15;;;14.10;;
39822;SDS011;25499;53.958;10.970;2024-02-26T14:00:34;28.45;;;15.77;;
39822;SDS011;25499;53.958;10.970;2024-02-26T14:03:03;27.50;;;14.45;;
39822;SDS011;25499;53.958;10.970;2024-02-26T14:05:30;25.80;;;14.93;;
39822;SDS011;25499;53.958;10.970;2024-02-26T14:07:57;23.50;;;13.07;;
39822;SDS011;25499;53.958;10.970;2024-02-26T14:10:24;25.02;;;14.77;;
39822;SDS011;25499;53.958;10.970;2024-02-26T14:12:51;23.40;;;13.40;;
39822;SDS011;25499;53.958;10.970;2024-02-26T14:15:17;22.73;;;13.45;;
39822;SDS011;25499;53.958;10.970;2024-02-26T14:17:44;20.33;;;12.75;;
39822;SDS011;25499;53.958;10.970;2024-02-26T14:20:19;22.52;;;12.95;;
39822;SDS011;25499;53.958;10.970;2024-02-26T14:22:47;22.98;;;13.20;;
39822;SDS011;25499;53.958;10.970;2024-02-26T14:25:14;21.40;;;12.73;;
39822;SDS011;25499;53.958;10.970;2024-02-26T14:27:41;22.33;;;13.15;;
39822;SDS011;25499;53.958;10.970;2024-02-26T14:30:08;21.98;;;13.05;;
39822;SDS011;25499;53.958;10.970;2024-02-26T14:32:35;25.08;;;13.07;;
39822;SDS011;25499;53.958;10.970;2024-02-26T14:35:03;21.90;;;13.60;;
39822;SDS011;25499;53.958;10.970;2024-02-26T14:37:33;21.65;;;12.55;;
39822;SDS011;25499;53.958;10.970;2024-02-26T14:40:00;20.73;;;12.18;;
39822;SDS011;25499;53.958;10.970;2024-02-26T14:42:27;22.13;;;12.90;;
39822;SDS011;25499;53.958;10.970;2024-02-26T14:44:54;21.10;;;12.98;;
39822;SDS011;25499;53.958;10.970;2024-02-26T14:47:21;22.25;;;12.38;;
39822;SDS011;25499;53.958;10.970;2024-02-26T14:49:48;22.15;;;12.95;;
39822;SDS011;25499;53.958;10.970;2024-02-26T14:52:17;19.40;;;12.45;;
39822;SDS011;25499;53.958;10.970;2024-02-26T14:54:45;22.73;;;12.80;;
39822;SDS011;25499;53.958;10.970;2024-02-26T14:57:12;21.42;;;12.93;;
39822;SDS011;25499;53.958;10.970;2024-02-26T14:59:39;21.33;;;12.60;;
39822;SDS011;25499;53.958;10.970;2024-02-26T15:02:07;21.90;;;11.82;;
39822;SDS011;25499;53.958;10.970;2024-02-26T15:04:35;21.85;;;12.38;;
39822;SDS011;25499;53.958;10.970;2024-02-26T15:07:02;21.40;;;13.57;;
39822;SDS011;25499;53.958;10.970;2024-02-26T15:09:30;22.30;;;12.73;;
39822;SDS011;25499;53.958;10.970;2024-02-26T15:11:58;19.95;;;12.23;;
39822;SDS011;25499;53.958;10.970;2024-02-26T15:14:25;21.70;;;12.88;;
39822;SDS011;25499;53.958;10.970;2024-02-26T15:16:52;19.10;;;11.82;;
39822;SDS011;25499;53.958;10.970;2024-02-26T15:19:19;19.92;;;11.60;;
39822;SDS011;25499;53.958;10.970;2024-02-26T15:21:46;17.55;;;11.65;;
39822;SDS011;25499;53.958;10.970;2024-02-26T15:24:14;19.35;;;11.85;;
39822;SDS011;25499;53.958;10.970;2024-02-26T15:26:42;21.35;;;13.15;;
39822;SDS011;25499;53.958;10.970;2024-02-26T15:29:11;20.52;;;12.48;;
39822;SDS011;25499;53.958;10.970;2024-02-26T15:31:38;21.25;;;12.63;;
39822;SDS011;25499;53.958;10.970;2024-02-26T15:34:05;22.25;;;13.05;;
39822;SDS011;25499;53.958;10.970;2024-02-26T15:36:32;21.55;;;12.63;;
39822;SDS011;25499;53.958;10.970;2024-02-26T15:38:59;20.65;;;12.55;;
39822;SDS011;25499;53.958;10.970;2024-02-26T15:41:27;22.23;;;13.13;;
39822;SDS011;25499;53.958;10.970;2024-02-26T15:43:55;21.02;;;12.15;;
39822;SDS011;25499;53.958;10.970;2024-02-26T15:46:23;18.88;;;11.77;;
39822;SDS011;25499;53.958;10.970;2024-02-26T15:48:50;17.52;;;11.73;;
39822;SDS011;25499;53.958;10.970;2024-02-26T15:51:20;20.00;;;11.93;;
39822;SDS011;25499;53.958;10.970;2024-02-26T15:53:49;21.02;;;12.75;;
39822;SDS011;25499;53.958;10.970;2024-02-26T15:56:16;19.48;;;12.18;;
39822;SDS011;25499;53.958;10.970;2024-02-26T15:58:43;19.50;;;12.30;;
39822;SDS011;25499;53.958;10.970;2024-02-26T16:01:10;24.50;;;13.45;;
39822;SDS011;25499;53.958;10.970;2024-02-26T16:03:39;22.88;;;13.77;;
39822;SDS011;25499;53.958;10.970;2024-02-26T16:06:06;20.98;;;12.73;;
39822;SDS011;25499;53.958;10.970;2024-02-26T16:08:43;20.50;;;12.65;;
39822;SDS011;25499;53.958;10.970;2024-02-26T16:11:10;22.52;;;12.60;;
39822;SDS011;25499;53.958;10.970;2024-02-26T16:13:37;21.95;;;13.95;;
39822;SDS011;25499;53.958;10.970;2024-02-26T16:16:06;23.10;;;13.00;;
39822;SDS011;25499;53.958;10.970;2024-02-26T16:18:39;21.20;;;12.82;;
39822;SDS011;25499;53.958;10.970;2024-02-26T16:21:08;21.40;;;13.60;;
39822;SDS011;25499;53.958;10.970;2024-02-26T16:23:34;22.30;;;13.63;;
39822;SDS011;25499;53.958;10.970;2024-02-26T16:26:01;22.55;;;13.40;;
39822;SDS011;25499;53.958;10.970;2024-02-26T16:28:28;21.90;;;13.50;;
39822;SDS011;25499;53.958;10.970;2024-02-26T16:30:55;24.00;;;13.70;;
39822;SDS011;25499;53.958;10.970;2024-02-26T16:33:22;22.88;;;13.82;;
39822;SDS011;25499;53.958;10.970;2024-02-26T16:35:52;25.60;;;14.43;;
39822;SDS011;25499;53.958;10.970;2024-02-26T16:38:19;22.00;;;13.45;;
39822;SDS011;25499;53.958;10.970;2024-02-26T16:40:47;22.08;;;13.68;;
39822;SDS011;25499;53.958;10.970;2024-02-26T16:43:13;22.77;;;13.48;;
39822;SDS011;25499;53.958;10.970;2024-02-26T16:45:40;23.25;;;13.65;;
39822;SDS011;25499;53.958;10.970;2024-02-26T16:48:07;23.20;;;13.10;;
39822;SDS011;25499;53.958;10.970;2024-02-26T16:50:34;24.90;;;14.57;;
39822;SDS011;25499;53.958;10.970;2024-02-26T16:53:02;27.08;;;14.50;;
39822;SDS011;25499;53.958;10.970;2024-02-26T16:55:29;30.55;;;14.52;;
39822;SDS011;25499;53.958;10.970;2024-02-26T16:57:57;25.58;;;14.80;;
39822;SDS011;25499;53.958;10.970;2024-02-26T17:00:23;30.52;;;16.70;;
39822;SDS011;25499;53.958;10.970;2024-02-26T17:02:50;31.20;;;17.10;;
39822;SDS011;25499;53.958;10.970;2024-02-26T17:17:48;38.95;;;19.75;;
39822;SDS011;25499;53.958;10.970;2024-02-26T17:20:15;28.50;;;16.92;;
39822;SDS011;25499;53.958;10.970;2024-02-26T17:22:42;32.90;;;18.80;;
39822;SDS011;25499;53.958;10.970;2024-02-26T17:25:09;29.10;;;16.33;;
39822;SDS011;25499;53.958;10.970;2024-02-26T17:27:37;27.85;;;15.35;;
39822;SDS011;25499;53.958;10.970;2024-02-26T17:30:05;28.60;;;16.15;;
39822;SDS011;25499;53.958;10.970;2024-02-26T17:32:32;31.00;;;16.35;;
39822;SDS011;25499;53.958;10.970;2024-02-26T17:35:01;30.65;;;14.98;;
39822;SDS011;25499;53.958;10.970;2024-02-26T17:37:29;25.30;;;14.57;;
39822;SDS011;25499;53.958;10.970;2024-02-26T17:39:55;28.20;;;15.52;;
39822;SDS011;25499;53.958;10.970;2024-02-26T17:42:22;27.33;;;15.85;;
39822;SDS011;25499;53.958;10.970;2024-02-26T17:44:49;27.10;;;15.18;;
39822;SDS011;25499;53.958;10.970;2024-02-26T17:47:17;26.58;;;15.13;;
39822;SDS011;25499;53.958;10.970;2024-02-26T17:49:44;25.73;;;15.02;;
39822;SDS011;25499;53.958;10.970;2024-02-26T17:52:12;28.75;;;16.25;;
39822;SDS011;25499;53.958;10.970;2024-02-26T17:54:39;26.60;;;14.60;;
39822;SDS011;25499;53.958;10.970;2024-02-26T17:57:06;23.17;;;13.60;;
39822;SDS011;25499;53.958;10.970;2024-02-26T17:59:32;25.20;;;14.13;;
39822;SDS011;25499;53.958;10.970;2024-02-26T18:01:59;22.83;;;13.82;;
39822;SDS011;25499;53.958;10.970;2024-02-26T18:04:26;21.67;;;13.23;;
39822;SDS011;25499;53.958;10.970;2024-02-26T18:06:53;25.20;;;13.60;;
39822;SDS011;25499;53.958;10.970;2024-02-26T18:09:21;24.33;;;13.27;;
39822;SDS011;25499;53.958;10.970;2024-02-26T18:11:53;25.63;;;13.77;;
39822;SDS011;25499;53.958;10.970;2024-02-26T18:14:20;24.10;;;14.23;;
39822;SDS011;25499;53.958;10.970;2024-02-26T18:16:47;25.27;;;14.73;;
39822;SDS011;25499;53.958;10.970;2024-02-26T18:19:14;25.63;;;14.50;;
39822;SDS011;25499;53.958;10.970;2024-02-26T18:21:40;23.63;;;14.05;;
39822;SDS011;25499;53.958;10.970;2024-02-26T18:24:07;25.65;;;14.52;;
39822;SDS011;25499;53.958;10.970;2024-02-26T18:26:36;26.33;;;14.32;;
39822;SDS011;25499;53.958;10.970;2024-02-26T18:29:02;24.92;;;14.13;;
39822;SDS011;25499;53.958;10.970;2024-02-26T18:31:29;27.00;;;14.82;;
39822;SDS011;25499;53.958;10.970;2024-02-26T18:33:56;24.75;;;14.27;;
39822;SDS011;25499;53.958;10.970;2024-02-26T18:36:23;26.13;;;14.77;;
39822;SDS011;25499;53.958;10.970;2024-02-26T18:38:50;26.88;;;15.25;;
39822;SDS011;25499;53.958;10.970;2024-02-26T18:41:17;27.10;;;15.63;;
39822;SDS011;25499;53.958;10.970;2024-02-26T18:43:47;28.35;;;16.42;;
39822;SDS011;25499;53.958;10.970;2024-02-26T18:46:14;29.02;;;16.25;;
39822;SDS011;25499;53.958;10.970;2024-02-26T18:48:41;29.45;;;16.42;;
39822;SDS011;25499;53.958;10.970;2024-02-26T18:51:08;26.85;;;15.68;;
39822;SDS011;25499;53.958;10.970;2024-02-26T18:53:35;31.88;;;16.88;;
39822;SDS011;25499;53.958;10.970;2024-02-26T18:56:04;36.28;;;19.40;;
39822;SDS011;25499;53.958;10.970;2024-02-26T18:58:31;36.35;;;19.52;;
39822;SDS011;25499;53.958;10.970;2024-02-26T19:00:59;34.33;;;18.88;;
39822;SDS011;25499;53.958;10.970;2024-02-26T19:03:26;35.30;;;18.42;;
39822;SDS011;25499;53.958;10.970;2024-02-26T19:05:54;33.80;;;17.58;;
39822;SDS011;25499;53.958;10.970;2024-02-26T19:08:21;35.17;;;16.60;;
39822;SDS011;25499;53.958;10.970;2024-02-26T19:10:47;30.00;;;16.15;;
39822;SDS011;25499;53.958;10.970;2024-02-26T19:13:14;39.15;;;15.15;;
39822;SDS011;25499;53.958;10.970;2024-02-26T19:15:41;28.40;;;14.60;;
39822;SDS011;25499;53.958;10.970;2024-02-26T19:18:12;41.15;;;14.00;;
39822;SDS011;25499;53.958;10.970;2024-02-26T19:20:39;30.40;;;14.55;;
39822;SDS011;25499;53.958;10.970;2024-02-26T19:23:05;30.60;;;14.68;;
39822;SDS011;25499;53.958;10.970;2024-02-26T19:25:33;29.50;;;14.50;;
39822;SDS011;25499;53.958;10.970;2024-02-26T19:27:59;32.22;;;14.77;;
39822;SDS011;25499;53.958;10.970;2024-02-26T19:30:26;36.28;;;15.63;;
39822;SDS011;25499;53.958;10.970;2024-02-26T19:32:53;40.38;;;15.43;;
39822;SDS011;25499;53.958;10.970;2024-02-26T19:35:21;35.05;;;14.90;;
39822;SDS011;25499;53.958;10.970;2024-02-26T19:37:48;34.60;;;15.38;;
39822;SDS011;25499;53.958;10.970;2024-02-26T19:40:15;50.58;;;16.73;;
39822;SDS011;25499;53.958;10.970;2024-02-26T19:42:42;36.75;;;15.85;;
39822;SDS011;25499;53.958;10.970;2024-02-26T19:45:09;45.47;;;16.02;;
39822;SDS011;25499;53.958;10.970;2024-02-26T19:47:37;36.50;;;15.80;;
39822;SDS011;25499;53.958;10.970;2024-02-26T19:50:05;40.05;;;15.05;;
39822;SDS011;25499;53.958;10.970;2024-02-26T19:52:34;78.70;;;19.13;;
39822;SDS011;25499;53.958;10.970;2024-02-26T19:55:01;59.80;;;15.98;;
39822;SDS011;25499;53.958;10.970;2024-02-26T19:57:30;45.40;;;15.30;;
39822;SDS011;25499;53.958;10.970;2024-02-26T19:59:58;76.93;;;16.55;;
39822;SDS011;25499;53.958;10.970;2024-02-26T20:02:25;42.17;;;15.98;;
39822;SDS011;25499;53.958;10.970;2024-02-26T20:04:52;66.22;;;16.50;;
39822;SDS011;25499;53.958;10.970;2024-02-26T20:07:19;49.40;;;16.33;;
39822;SDS011;25499;53.958;10.970;2024-02-26T20:09:48;76.40;;;15.88;;
39822;SDS011;25499;53.958;10.970;2024-02-26T20:12:15;41.65;;;16.77;;
39822;SDS011;25499;53.958;10.970;2024-02-26T20:14:42;61.28;;;17.30;;
39822;SDS011;25499;53.958;10.970;2024-02-26T20:17:09;55.72;;;16.58;;
39822;SDS011;25499;53.958;10.970;2024-02-26T20:19:36;75.35;;;17.77;;